createdAt,value
2019-05-26T00:00:02.047Z,100.00
2019-05-26T00:02:30.326Z,99.91
2019-05-26T00:04:58.620Z,100.00
2019-05-26T00:07:30.600Z,99.64
2019-05-26T00:09:56.893Z,99.80
2019-05-26T00:12:25.194Z,100.00
2019-05-26T00:14:53.460Z,99.94
2019-05-26T00:17:21.741Z,100.00
2019-05-26T00:19:50.014Z,100.00
2019-05-26T00:22:18.283Z,100.00
2019-05-26T00:24:46.544Z,100.00
2019-05-26T00:27:14.818Z,100.00
2019-05-26T00:29:43.085Z,100.00
2019-05-26T00:32:11.367Z,100.00
2019-05-26T00:34:39.736Z,100.00
2019-05-26T00:37:08.019Z,100.00
2019-05-26T00:39:36.300Z,100.00
2019-05-26T00:42:04.634Z,100.00
2019-05-26T00:44:32.906Z,100.00
2019-05-26T00:47:01.177Z,100.00
2019-05-26T00:49:29.462Z,100.00
2019-05-26T00:51:57.722Z,100.00
2019-05-26T00:54:25.990Z,100.00
2019-05-26T00:56:54.258Z,100.00
2019-05-26T00:59:22.539Z,100.00
2019-05-26T01:01:50.814Z,100.00
2019-05-26T01:04:19.085Z,100.00
2019-05-26T01:06:47.349Z,100.00
2019-05-26T01:09:15.637Z,100.00
2019-05-26T01:11:43.903Z,100.00
2019-05-26T01:14:12.180Z,100.00
2019-05-26T01:16:40.449Z,100.00
2019-05-26T01:19:08.709Z,100.00
2019-05-26T01:21:36.988Z,100.00
2019-05-26T01:24:05.325Z,100.00
2019-05-26T01:26:33.604Z,100.00
2019-05-26T01:29:01.880Z,100.00
2019-05-26T01:31:30.152Z,100.00
2019-05-26T01:33:58.436Z,100.00
2019-05-26T01:36:26.732Z,100.00
2019-05-26T01:38:55.173Z,100.00
2019-05-26T01:41:23.440Z,100.00
2019-05-26T01:43:51.704Z,100.00
2019-05-26T01:46:19.966Z,100.00
2019-05-26T01:48:48.241Z,100.00
2019-05-26T01:51:16.522Z,100.00
2019-05-26T01:53:44.786Z,100.00
2019-05-26T01:56:13.060Z,100.00
2019-05-26T01:58:41.330Z,100.00
2019-05-26T02:01:09.611Z,100.00
2019-05-26T02:03:38.344Z,100.00
2019-05-26T02:06:06.616Z,100.00
2019-05-26T02:08:39.285Z,100.00
2019-05-26T02:11:04.889Z,100.00
2019-05-26T02:13:33.165Z,100.00
2019-05-26T02:16:01.441Z,100.00
2019-05-26T02:18:29.729Z,100.00
2019-05-26T02:20:58.000Z,100.00
2019-05-26T02:23:26.273Z,100.00
2019-05-26T02:25:54.555Z,100.00
2019-05-26T02:28:22.821Z,100.00
2019-05-26T02:30:51.125Z,100.00
2019-05-26T02:33:19.388Z,100.00
2019-05-26T02:35:47.658Z,100.00
2019-05-26T02:38:15.940Z,100.00
2019-05-26T02:40:44.251Z,100.00
2019-05-26T02:43:12.526Z,100.00
2019-05-26T02:45:40.805Z,100.00
2019-05-26T02:48:09.088Z,100.00
2019-05-26T02:50:37.368Z,100.00
2019-05-26T02:53:05.641Z,100.00
2019-05-26T02:55:34.028Z,100.00
2019-05-26T02:58:02.299Z,100.00
2019-05-26T03:00:44.536Z,100.00
2019-05-26T03:03:13.932Z,100.00
2019-05-26T03:05:44.424Z,100.00
2019-05-26T03:08:14.797Z,100.00
2019-05-26T03:10:43.188Z,100.00
2019-05-26T03:13:15.309Z,100.00
2019-05-26T03:15:45.381Z,100.00
2019-05-26T03:18:13.720Z,100.00
2019-05-26T03:20:42.072Z,100.00
2019-05-26T03:23:10.507Z,100.00
2019-05-26T03:25:39.050Z,100.00
2019-05-26T03:28:07.774Z,100.00
2019-05-26T03:30:36.523Z,100.00
2019-05-26T03:33:04.973Z,100.00
2019-05-26T03:35:33.311Z,100.00
2019-05-26T03:38:01.576Z,100.00
2019-05-26T03:40:29.844Z,100.00
2019-05-26T03:42:58.117Z,100.00
2019-05-26T03:45:45.953Z,100.00
2019-05-26T03:48:14.183Z,100.00
2019-05-26T03:50:42.457Z,100.00
2019-05-26T03:53:10.798Z,100.00
2019-05-26T03:55:39.076Z,100.00
2019-05-26T03:58:07.363Z,100.00
2019-05-26T04:00:35.634Z,100.00
2019-05-26T04:03:03.902Z,100.00
2019-05-26T04:06:05.382Z,100.00
2019-05-26T04:08:33.671Z,100.00
2019-05-26T04:11:01.946Z,100.00
2019-05-26T04:13:30.236Z,100.00
2019-05-26T04:15:58.571Z,100.00
2019-05-26T04:18:26.857Z,100.00
2019-05-26T04:20:55.149Z,100.00
2019-05-26T04:23:23.425Z,100.00
2019-05-26T04:25:51.705Z,100.00
2019-05-26T04:28:19.977Z,100.00
2019-05-26T04:30:48.252Z,100.00
2019-05-26T04:33:16.529Z,100.00
2019-05-26T04:35:44.808Z,100.00
2019-05-26T04:38:13.077Z,100.00
2019-05-26T04:40:41.353Z,100.00
2019-05-26T04:43:14.438Z,100.00
2019-05-26T04:45:39.648Z,100.00
2019-05-26T04:48:07.966Z,100.00
2019-05-26T04:50:36.200Z,100.00
2019-05-26T04:53:07.072Z,100.00
2019-05-26T04:55:34.898Z,100.00
2019-05-26T04:58:03.313Z,100.00
2019-05-26T05:00:31.596Z,100.00
2019-05-26T05:02:59.952Z,100.00
2019-05-26T05:05:28.236Z,100.00
2019-05-26T05:07:56.522Z,100.00
2019-05-26T05:10:39.444Z,100.00
2019-05-26T05:12:54.812Z,100.00
2019-05-26T05:15:23.075Z,100.00
2019-05-26T05:17:51.363Z,100.00
2019-05-26T05:20:19.639Z,99.76
2019-05-26T05:22:47.919Z,99.75
2019-05-26T05:25:16.260Z,99.54
2019-05-26T05:27:44.531Z,98.77
2019-05-26T05:30:13.078Z,98.59
2019-05-26T05:32:41.363Z,98.29
2019-05-26T05:35:10.076Z,97.29
2019-05-26T05:37:38.429Z,97.11
2019-05-26T05:40:07.430Z,96.74
2019-05-26T05:42:35.743Z,96.56
2019-05-26T05:45:05.935Z,96.50
2019-05-26T05:47:34.210Z,96.46
2019-05-26T05:50:02.487Z,95.79
2019-05-26T05:52:30.786Z,95.80
2019-05-26T05:54:59.039Z,95.07
2019-05-26T05:57:27.333Z,94.94
2019-05-26T05:59:55.611Z,95.41
2019-05-26T06:02:23.877Z,95.40
2019-05-26T06:04:52.145Z,95.22
2019-05-26T06:07:20.414Z,95.17
2019-05-26T06:09:48.688Z,95.17
2019-05-26T06:12:16.972Z,94.97
2019-05-26T06:14:45.240Z,94.87
2019-05-26T06:17:13.526Z,94.15
2019-05-26T06:19:41.793Z,94.91
2019-05-26T06:22:10.069Z,95.06
2019-05-26T06:24:38.336Z,94.61
2019-05-26T06:27:06.616Z,94.61
2019-05-26T06:29:34.903Z,94.14
2019-05-26T06:32:03.514Z,94.42
2019-05-26T06:34:32.058Z,93.97
2019-05-26T06:37:00.324Z,93.14
2019-05-26T06:39:28.597Z,94.15
2019-05-26T06:41:56.901Z,93.54
2019-05-26T06:44:25.172Z,93.00
2019-05-26T06:46:53.466Z,92.58
2019-05-26T06:49:21.791Z,91.64
2019-05-26T06:51:50.023Z,90.10
2019-05-26T06:54:18.289Z,89.97
2019-05-26T06:56:46.575Z,89.93
2019-05-26T06:59:14.847Z,89.31
2019-05-26T07:01:43.118Z,88.64
2019-05-26T07:04:11.387Z,87.53
2019-05-26T07:06:39.675Z,87.31
2019-05-26T07:09:07.936Z,88.08
2019-05-26T07:11:50.190Z,87.37
2019-05-26T07:14:06.221Z,86.08
2019-05-26T07:16:38.463Z,86.07
2019-05-26T07:19:04.488Z,85.37
2019-05-26T07:21:32.774Z,83.35
2019-05-26T07:24:01.037Z,82.61
2019-05-26T07:26:29.319Z,82.56
2019-05-26T07:28:57.588Z,82.95
2019-05-26T07:31:25.860Z,83.28
2019-05-26T07:33:54.135Z,82.84
2019-05-26T07:36:22.410Z,82.77
2019-05-26T07:38:50.749Z,82.97
2019-05-26T07:41:19.035Z,83.40
2019-05-26T07:43:47.306Z,83.56
2019-05-26T07:46:15.593Z,83.06
2019-05-26T07:48:43.863Z,82.99
2019-05-26T07:51:12.137Z,82.49
2019-05-26T07:53:41.047Z,82.54
2019-05-26T07:56:09.339Z,83.62
2019-05-26T07:58:37.612Z,83.41
2019-05-26T08:01:05.955Z,82.85
2019-05-26T08:03:34.227Z,81.91
2019-05-26T08:06:02.777Z,83.17
2019-05-26T08:08:31.062Z,82.77
2019-05-26T08:10:59.337Z,82.54
2019-05-26T08:13:27.630Z,82.32
2019-05-26T08:15:55.895Z,81.37
2019-05-26T08:18:24.184Z,80.87
2019-05-26T08:20:52.468Z,81.21
2019-05-26T08:23:20.749Z,80.10
2019-05-26T08:25:49.353Z,80.57
2019-05-26T08:28:17.674Z,80.57
2019-05-26T08:30:45.968Z,80.51
2019-05-26T08:33:14.296Z,81.24
2019-05-26T08:35:42.673Z,82.13
2019-05-26T08:38:11.324Z,82.38
2019-05-26T08:40:39.682Z,82.31
2019-05-26T08:43:08.300Z,82.91
2019-05-26T08:45:36.630Z,83.51
2019-05-26T08:48:05.400Z,84.53
2019-05-26T08:50:34.513Z,84.31
2019-05-26T08:53:02.896Z,85.06
2019-05-26T08:55:31.172Z,84.50
2019-05-26T08:57:59.438Z,84.43
2019-05-26T09:00:27.789Z,86.21
2019-05-26T09:02:56.077Z,87.23
2019-05-26T09:05:24.420Z,87.23
2019-05-26T09:07:52.939Z,87.20
2019-05-26T09:10:21.222Z,87.06
2019-05-26T09:13:00.074Z,87.39
2019-05-26T09:15:19.566Z,88.35
2019-05-26T09:17:47.911Z,88.92
2019-05-26T09:20:16.627Z,87.68
2019-05-26T09:22:45.046Z,88.99
2019-05-26T09:25:13.908Z,88.50
2019-05-26T09:27:42.194Z,89.47
2019-05-26T09:30:10.550Z,90.82
2019-05-26T09:32:38.828Z,92.17
2019-05-26T09:35:07.749Z,91.01
2019-05-26T09:37:36.024Z,90.15
2019-05-26T09:40:06.541Z,91.77
2019-05-26T09:42:36.258Z,92.94
2019-05-26T09:45:06.904Z,92.90
2019-05-26T09:47:35.247Z,94.93
2019-05-26T09:50:04.862Z,96.86
2019-05-26T09:52:33.164Z,95.21
2019-05-26T09:55:01.485Z,97.35
2019-05-26T09:57:29.731Z,98.40
2019-05-26T09:59:58.020Z,99.46
2019-05-26T10:02:26.313Z,100.00
2019-05-26T10:04:54.605Z,100.00
2019-05-26T10:07:22.886Z,100.00
2019-05-26T10:09:51.191Z,100.00
2019-05-26T10:12:19.651Z,100.00
2019-05-26T10:14:48.032Z,100.00
2019-05-26T10:17:16.283Z,100.00
2019-05-26T10:19:44.560Z,100.00
2019-05-26T10:22:12.857Z,100.00
2019-05-26T10:24:41.149Z,100.00
2019-05-26T10:27:09.442Z,100.00
2019-05-26T10:29:37.713Z,100.00
2019-05-26T10:32:06.072Z,100.00
2019-05-26T10:34:34.364Z,100.00
2019-05-26T10:37:02.673Z,100.00
2019-05-26T10:39:30.946Z,100.00
2019-05-26T10:41:59.244Z,100.00
2019-05-26T10:44:27.582Z,100.00
2019-05-26T10:46:55.899Z,100.00
2019-05-26T10:49:24.181Z,100.00
2019-05-26T10:51:52.466Z,100.00
2019-05-26T10:54:20.760Z,100.00
2019-05-26T10:56:49.028Z,100.00
2019-05-26T10:59:17.309Z,100.00
2019-05-26T11:01:45.592Z,100.00
2019-05-26T11:04:13.886Z,100.00
2019-05-26T11:06:42.353Z,100.00
2019-05-26T11:09:10.649Z,100.00
2019-05-26T11:11:38.924Z,100.00
2019-05-26T11:14:07.243Z,100.00
2019-05-26T11:16:35.536Z,100.00
2019-05-26T11:19:04.105Z,100.00
2019-05-26T11:21:32.403Z,100.00
2019-05-26T11:24:00.691Z,100.00
2019-05-26T11:26:28.976Z,100.00
2019-05-26T11:28:57.257Z,100.00
2019-05-26T11:31:25.546Z,100.00
2019-05-26T11:33:53.816Z,100.00
2019-05-26T11:36:22.106Z,100.00
2019-05-26T11:38:50.394Z,100.00
2019-05-26T11:41:18.675Z,100.00
2019-05-26T11:43:46.963Z,100.00
2019-05-26T11:46:16.719Z,100.00
2019-05-26T11:48:45.315Z,100.00
2019-05-26T11:51:13.608Z,100.00
2019-05-26T11:53:41.891Z,100.00
2019-05-26T11:56:10.246Z,100.00
2019-05-26T11:58:38.538Z,100.00
2019-05-26T12:01:06.824Z,100.00
2019-05-26T12:03:35.105Z,100.00
2019-05-26T12:06:03.398Z,100.00
2019-05-26T12:08:31.683Z,100.00
2019-05-26T12:10:59.981Z,100.00
2019-05-26T12:13:28.268Z,100.00
2019-05-26T12:15:56.551Z,100.00
2019-05-26T12:18:24.855Z,100.00
2019-05-26T12:20:53.138Z,100.00
2019-05-26T12:23:21.424Z,100.00
2019-05-26T12:25:49.703Z,100.00
2019-05-26T12:28:17.992Z,100.00
2019-05-26T12:30:46.290Z,100.00
2019-05-26T12:33:14.643Z,100.00
2019-05-26T12:35:44.554Z,100.00
2019-05-26T12:38:12.990Z,100.00
2019-05-26T12:40:41.596Z,100.00
2019-05-26T12:43:09.884Z,100.00
2019-05-26T12:45:38.186Z,100.00
2019-05-26T12:48:06.489Z,100.00
2019-05-26T12:50:34.835Z,100.00
2019-05-26T12:53:03.186Z,100.00
2019-05-26T12:55:31.466Z,100.00
2019-05-26T12:57:59.751Z,100.00
2019-05-26T13:00:28.082Z,100.00
2019-05-26T13:02:56.420Z,100.00
2019-05-26T13:05:24.769Z,100.00
2019-05-26T13:07:53.072Z,100.00
2019-05-26T13:10:21.411Z,100.00
2019-05-26T13:12:49.704Z,100.00
2019-05-26T13:15:18.323Z,100.00
2019-05-26T13:17:46.616Z,100.00
2019-05-26T13:20:15.331Z,100.00
2019-05-26T13:22:43.613Z,100.00
2019-05-26T13:25:12.527Z,100.00
2019-05-26T13:27:40.808Z,99.08
2019-05-26T13:30:12.496Z,97.90
2019-05-26T13:32:40.778Z,99.79
2019-05-26T13:35:09.794Z,98.51
2019-05-26T13:37:38.067Z,98.70
2019-05-26T13:40:07.089Z,100.00
2019-05-26T13:42:35.518Z,100.00
2019-05-26T13:45:21.248Z,100.00
2019-05-26T13:47:36.111Z,100.00
2019-05-26T13:50:05.849Z,100.00
2019-05-26T13:52:34.107Z,99.96
2019-05-26T13:55:02.401Z,95.67
2019-05-26T13:57:30.673Z,97.81
2019-05-26T13:59:58.966Z,98.95
2019-05-26T14:02:27.241Z,95.79
2019-05-26T14:04:55.515Z,94.89
2019-05-26T14:07:23.825Z,91.68
2019-05-26T14:09:52.084Z,89.58
2019-05-26T14:12:20.357Z,88.94
2019-05-26T14:14:48.801Z,90.37
2019-05-26T14:17:17.741Z,89.84
2019-05-26T14:19:47.581Z,89.09
2019-05-26T14:22:15.862Z,86.09
2019-05-26T14:24:53.448Z,88.05
2019-05-26T14:27:14.144Z,89.40
2019-05-26T14:29:42.417Z,89.31
2019-05-26T14:32:10.709Z,89.94
2019-05-26T14:34:38.977Z,92.08
2019-05-26T14:37:07.328Z,88.35
2019-05-26T14:39:35.607Z,88.14
2019-05-26T14:42:03.910Z,86.23
2019-05-26T14:44:32.255Z,88.42
2019-05-26T14:47:00.523Z,89.13
2019-05-26T14:49:28.794Z,89.50
2019-05-26T14:51:57.079Z,89.86
2019-05-26T14:54:25.354Z,89.94
2019-05-26T14:56:53.622Z,89.80
2019-05-26T14:59:21.898Z,89.07
2019-05-26T15:01:50.186Z,88.35
2019-05-26T15:04:18.464Z,90.54
2019-05-26T15:06:46.752Z,91.54
2019-05-26T15:09:24.897Z,84.92
2019-05-26T15:11:45.008Z,83.86
2019-05-26T15:14:13.279Z,84.52
2019-05-26T15:16:41.564Z,84.51
2019-05-26T15:19:09.839Z,84.44
2019-05-26T15:21:38.114Z,83.63
2019-05-26T15:24:06.382Z,84.25
2019-05-26T15:26:34.660Z,83.90
2019-05-26T15:29:02.939Z,86.36
2019-05-26T15:31:31.223Z,85.37
2019-05-26T15:33:59.499Z,84.67
2019-05-26T15:36:27.759Z,82.56
2019-05-26T15:38:56.033Z,81.72
2019-05-26T15:41:24.310Z,81.04
2019-05-26T15:43:52.609Z,81.99
2019-05-26T15:46:25.215Z,81.49
2019-05-26T15:48:50.909Z,80.98
2019-05-26T15:51:19.150Z,80.38
2019-05-26T15:53:47.421Z,81.54
2019-05-26T15:56:15.703Z,81.25
2019-05-26T15:58:43.978Z,78.81
2019-05-26T16:01:12.258Z,80.25
2019-05-26T16:03:40.699Z,78.75
2019-05-26T16:06:08.962Z,79.25
2019-05-26T16:08:37.235Z,78.00
2019-05-26T16:11:05.529Z,79.20
2019-05-26T16:13:33.794Z,79.55
2019-05-26T16:16:02.063Z,79.22
2019-05-26T16:18:30.347Z,79.43
2019-05-26T16:21:02.977Z,78.41
2019-05-26T16:23:28.618Z,79.86
2019-05-26T16:25:56.887Z,78.08
2019-05-26T16:28:25.249Z,78.70
2019-05-26T16:30:53.509Z,78.43
2019-05-26T16:33:21.796Z,78.95
2019-05-26T16:35:50.071Z,79.19
2019-05-26T16:38:18.350Z,77.81
2019-05-26T16:40:46.631Z,77.68
2019-05-26T16:43:14.902Z,78.40
2019-05-26T16:45:55.647Z,76.58
2019-05-26T16:48:13.176Z,77.56
2019-05-26T16:50:41.451Z,78.83
2019-05-26T16:53:09.726Z,79.47
2019-05-26T16:55:38.021Z,80.31
2019-05-26T16:58:06.979Z,79.17
2019-05-26T17:00:35.352Z,79.92
2019-05-26T17:03:04.005Z,79.29
2019-05-26T17:05:32.277Z,80.99
2019-05-26T17:08:00.556Z,84.20
2019-05-26T17:10:28.840Z,88.61
2019-05-26T17:12:57.120Z,93.31
2019-05-26T17:15:25.394Z,95.10
2019-05-26T17:17:53.675Z,97.04
2019-05-26T17:20:22.024Z,100.00
2019-05-26T17:22:50.304Z,100.00
2019-05-26T17:25:18.761Z,100.00
2019-05-26T17:27:47.040Z,100.00
2019-05-26T17:30:15.571Z,100.00
2019-05-26T17:32:43.848Z,100.00
2019-05-26T17:35:12.192Z,100.00
2019-05-26T17:37:40.480Z,100.00
2019-05-26T17:40:08.842Z,100.00
2019-05-26T17:42:37.125Z,100.00
2019-05-26T17:45:08.455Z,100.00
2019-05-26T17:47:36.749Z,100.00
2019-05-26T17:50:08.261Z,100.00
2019-05-26T17:52:36.810Z,100.00
2019-05-26T17:55:09.227Z,100.00
2019-05-26T17:57:37.551Z,100.00
2019-05-26T18:00:10.533Z,100.00
2019-05-26T18:02:38.826Z,100.00
2019-05-26T18:05:07.123Z,100.00
2019-05-26T18:07:35.404Z,100.00
2019-05-26T18:10:04.951Z,100.00
2019-05-26T18:12:33.242Z,100.00
2019-05-26T18:15:01.540Z,100.00
2019-05-26T18:17:45.534Z,100.00
2019-05-26T18:19:59.908Z,100.00
2019-05-26T18:22:28.238Z,100.00
2019-05-26T18:24:58.517Z,100.00
2019-05-26T18:27:26.580Z,100.00
2019-05-26T18:29:54.862Z,100.00
2019-05-26T18:32:23.185Z,100.00
2019-05-26T18:34:51.535Z,100.00
2019-05-26T18:37:19.837Z,100.00
2019-05-26T18:39:48.133Z,100.00
2019-05-26T18:42:16.425Z,100.00
2019-05-26T18:44:44.713Z,100.00
2019-05-26T18:47:13.001Z,100.00
2019-05-26T18:49:41.299Z,100.00
2019-05-26T18:52:09.576Z,100.00
2019-05-26T18:54:37.857Z,100.00
2019-05-26T18:57:06.162Z,100.00
2019-05-26T18:59:34.443Z,100.00
2019-05-26T19:02:02.741Z,100.00
2019-05-26T19:04:31.045Z,100.00
2019-05-26T19:06:59.361Z,100.00
2019-05-26T19:09:27.657Z,100.00
2019-05-26T19:11:55.937Z,100.00
2019-05-26T19:14:24.214Z,100.00
2019-05-26T19:16:52.511Z,100.00
2019-05-26T19:19:20.824Z,100.00
2019-05-26T19:21:49.111Z,100.00
2019-05-26T19:24:17.407Z,100.00
2019-05-26T19:26:45.694Z,100.00
2019-05-26T19:29:13.990Z,100.00
2019-05-26T19:31:42.293Z,100.00
2019-05-26T19:34:10.604Z,100.00
2019-05-26T19:36:38.882Z,100.00
2019-05-26T19:39:09.679Z,100.00
2019-05-26T19:41:39.340Z,100.00
2019-05-26T19:44:07.820Z,100.00
2019-05-26T19:46:36.835Z,100.00
2019-05-26T19:49:05.176Z,100.00
2019-05-26T19:51:33.531Z,100.00
2019-05-26T19:54:01.804Z,100.00
2019-05-26T19:56:30.091Z,100.00
2019-05-26T19:58:58.387Z,100.00
2019-05-26T20:01:26.684Z,100.00
2019-05-26T20:03:54.961Z,100.00
2019-05-26T20:06:23.248Z,100.00
2019-05-26T20:08:51.548Z,100.00
2019-05-26T20:11:19.842Z,100.00
2019-05-26T20:13:48.114Z,100.00
2019-05-26T20:16:16.394Z,100.00
2019-05-26T20:18:44.689Z,100.00
2019-05-26T20:21:12.978Z,100.00
2019-05-26T20:23:41.915Z,100.00
2019-05-26T20:26:10.197Z,100.00
2019-05-26T20:28:38.486Z,100.00
2019-05-26T20:31:06.791Z,100.00
2019-05-26T20:33:35.070Z,100.00
2019-05-26T20:36:03.348Z,100.00
2019-05-26T20:38:31.670Z,100.00
2019-05-26T20:41:00.138Z,100.00
2019-05-26T20:43:28.423Z,100.00
2019-05-26T20:45:56.715Z,100.00
2019-05-26T20:48:24.979Z,100.00
2019-05-26T20:50:53.268Z,100.00
2019-05-26T20:53:21.551Z,100.00
2019-05-26T20:55:49.837Z,100.00
2019-05-26T20:58:18.116Z,100.00
2019-05-26T21:00:46.400Z,100.00
2019-05-26T21:03:14.689Z,100.00
2019-05-26T21:05:42.964Z,100.00
2019-05-26T21:08:11.261Z,100.00
2019-05-26T21:10:39.645Z,100.00
2019-05-26T21:13:07.905Z,100.00
2019-05-26T21:15:36.189Z,100.00
2019-05-26T21:18:04.468Z,100.00
2019-05-26T21:20:32.751Z,100.00
2019-05-26T21:23:01.035Z,100.00
2019-05-26T21:25:29.404Z,100.00
2019-05-26T21:27:57.694Z,100.00
2019-05-26T21:30:25.982Z,100.00
2019-05-26T21:32:54.247Z,100.00
2019-05-26T21:35:22.897Z,100.00
2019-05-26T21:37:51.169Z,100.00
2019-05-26T21:40:19.840Z,100.00
2019-05-26T21:42:48.115Z,100.00
2019-05-26T21:45:17.371Z,100.00
2019-05-26T21:47:45.658Z,100.00
2019-05-26T21:50:14.172Z,100.00
2019-05-26T21:52:42.460Z,100.00
2019-05-26T21:55:10.908Z,100.00
2019-05-26T21:57:39.199Z,100.00
2019-05-26T22:00:12.348Z,100.00
2019-05-26T22:02:40.624Z,100.00
2019-05-26T22:05:09.336Z,100.00
2019-05-26T22:07:37.626Z,100.00
2019-05-26T22:10:06.343Z,100.00
2019-05-26T22:12:34.649Z,100.00
2019-05-26T22:15:02.942Z,100.00
2019-05-26T22:17:31.220Z,100.00
2019-05-26T22:19:59.493Z,100.00
2019-05-26T22:22:27.777Z,100.00
2019-05-26T22:24:56.060Z,100.00
2019-05-26T22:27:24.363Z,100.00
2019-05-26T22:29:52.641Z,100.00
2019-05-26T22:32:20.923Z,100.00
2019-05-26T22:34:49.206Z,100.00
2019-05-26T22:37:17.493Z,100.00
2019-05-26T22:39:45.799Z,100.00
2019-05-26T22:42:14.080Z,100.00
2019-05-26T22:44:42.359Z,100.00
2019-05-26T22:47:10.717Z,100.00
2019-05-26T22:49:39.006Z,100.00
2019-05-26T22:52:07.288Z,100.00
2019-05-26T22:54:35.564Z,100.00
2019-05-26T22:57:03.860Z,100.00
2019-05-26T22:59:32.143Z,100.00
2019-05-26T23:02:00.434Z,100.00
2019-05-26T23:04:28.713Z,100.00
2019-05-26T23:06:57.001Z,100.00
2019-05-26T23:09:25.276Z,100.00
2019-05-26T23:11:53.557Z,100.00
2019-05-26T23:14:21.838Z,100.00
2019-05-26T23:16:50.119Z,100.00
2019-05-26T23:19:19.998Z,100.00
2019-05-26T23:21:48.449Z,100.00
2019-05-26T23:24:16.732Z,100.00
2019-05-26T23:26:45.024Z,100.00
2019-05-26T23:29:13.321Z,100.00
2019-05-26T23:31:41.597Z,100.00
2019-05-26T23:34:09.874Z,100.00
2019-05-26T23:36:38.195Z,100.00
2019-05-26T23:39:07.125Z,100.00
2019-05-26T23:41:35.395Z,100.00
2019-05-26T23:44:03.676Z,100.00
2019-05-26T23:46:31.972Z,100.00
2019-05-26T23:49:00.296Z,100.00
2019-05-26T23:51:28.550Z,100.00
2019-05-26T23:53:56.853Z,100.00
2019-05-26T23:56:25.171Z,100.00
2019-05-26T23:58:53.471Z,100.00
